createdAt,value
2016-06-18T18:29:18.389Z,78.5
2016-06-18T18:29:43.877Z,78.69
2016-06-18T18:30:44.724Z,78.98
2016-06-18T18:31:44.118Z,78.84
2016-06-18T18:33:44.797Z,79.03
2016-06-18T18:34:44.566Z,78.84
2016-06-18T18:35:44.601Z,78.84
2016-06-18T18:36:44.604Z,78.65
2016-06-18T18:37:58.811Z,79.32
2016-06-18T18:38:59.220Z,78.75
2016-06-18T18:39:44.615Z,79.03
2016-06-18T18:40:44.634Z,79.22
2016-06-18T18:41:44.011Z,79.03
2016-06-18T18:42:44.890Z,79.22
2016-06-18T18:43:44.893Z,79.13
2016-06-18T18:44:59.085Z,79.71
2016-06-18T18:45:44.916Z,79.32
2016-06-18T18:47:44.079Z,79.13
2016-06-18T18:48:44.286Z,78.94
2016-06-18T18:49:44.742Z,79.13
2016-06-18T18:50:58.934Z,79.42
2016-06-18T18:51:44.312Z,79.38
2016-06-18T18:52:44.753Z,79.47
2016-06-18T18:53:44.132Z,79.86
2016-06-18T18:55:16.259Z,79.96
2016-06-18T18:55:44.998Z,79.76
2016-06-18T18:56:44.563Z,79.67
2016-06-18T18:57:44.177Z,79.76
2016-06-18T18:58:45.039Z,79.57
2016-06-18T18:59:45.059Z,79.96
2016-06-18T19:00:59.687Z,79.38
2016-06-18T19:01:59.472Z,79.76
2016-06-18T19:02:45.069Z,79.47
2016-06-18T19:03:44.870Z,79.67
2016-06-18T19:04:45.091Z,79.76
2016-06-18T19:05:44.284Z,79.76
2016-06-18T19:06:44.273Z,79.67
2016-06-18T19:07:44.277Z,79.57
2016-06-18T19:08:44.281Z,79.57
2016-06-18T19:09:44.286Z,79.76
2016-06-18T19:10:44.306Z,79.57
2016-06-18T19:11:44.341Z,79.76
2016-06-18T19:12:44.329Z,79.76
2016-06-18T19:13:44.349Z,79.86
2016-06-18T19:14:44.352Z,79.86
2016-06-18T19:15:45.215Z,79.76
2016-06-18T19:16:59.423Z,80.05
2016-06-18T19:17:45.035Z,79.63
2016-06-18T19:18:45.022Z,80.05
2016-06-18T19:19:45.058Z,80.01
2016-06-18T19:20:44.420Z,79.91
2016-06-18T19:21:45.268Z,80.49
2016-06-18T19:22:44.630Z,79.91
2016-06-18T19:23:45.306Z,80.2
2016-06-18T19:24:44.653Z,80.01
2016-06-18T19:25:44.469Z,80.49
2016-06-18T19:26:45.128Z,80.3
2016-06-18T19:27:44.710Z,80.53
2016-06-18T19:28:59.745Z,80.2
2016-06-18T19:29:45.357Z,80.2
2016-06-18T19:30:45.361Z,80.49
2016-06-18T19:31:45.381Z,80.49
2016-06-18T19:32:45.181Z,80.2
2016-06-18T19:33:45.184Z,80.4
2016-06-18T19:34:45.797Z,80.3
2016-06-18T19:36:44.585Z,80.3
2016-06-18T19:37:44.807Z,80.3
2016-06-18T19:38:44.592Z,80.49
2016-06-18T19:39:44.595Z,80.4
2016-06-18T19:40:44.849Z,80.49
2016-06-18T19:41:44.837Z,80.2
2016-06-18T19:42:44.855Z,80.3
2016-06-18T19:43:44.906Z,80.26
2016-06-18T19:44:44.659Z,80.07
2016-06-18T19:45:44.663Z,80.35
2016-06-18T19:46:44.682Z,80.26
2016-06-18T19:47:44.685Z,80.35
2016-06-18T19:48:44.689Z,80.26
2016-06-18T19:49:44.693Z,80.55
2016-06-18T19:50:44.915Z,80.74
2016-06-18T19:51:44.715Z,80.55
2016-06-18T19:52:44.718Z,81.02
2016-06-18T19:53:44.738Z,81.12
2016-06-18T19:54:45.397Z,81.12
2016-06-18T19:55:59.792Z,80.93
2016-06-18T19:56:45.842Z,80.93
2016-06-18T19:57:45.626Z,81.31
2016-06-18T19:58:45.426Z,81.31
2016-06-18T19:59:45.461Z,81.02
2016-06-18T20:00:44.793Z,81.51
2016-06-18T20:01:45.906Z,81.18
2016-06-18T20:02:45.034Z,81.56
2016-06-18T20:03:44.835Z,81.95
2016-06-18T20:04:45.509Z,82.04
2016-06-18T20:05:44.842Z,82.18
2016-06-18T20:06:45.063Z,81.27
2016-06-18T20:07:59.708Z,81.08
2016-06-18T20:08:59.961Z,81.56
2016-06-18T20:09:59.762Z,81.95
2016-06-18T20:10:45.547Z,82.32
2016-06-18T20:11:59.988Z,81.85
2016-06-18T20:13:00.366Z,82.32
2016-06-18T20:14:00.166Z,82.32
2016-06-18T20:14:45.780Z,82.14
2016-06-18T20:15:45.987Z,82.52
2016-06-18T20:16:45.600Z,82.62
2016-06-18T20:17:45.619Z,82.62
2016-06-18T20:19:45.611Z,82.52
2016-06-18T20:20:45.615Z,82.23
2016-06-18T20:21:45.009Z,82.23
2016-06-18T20:22:45.232Z,82.23
2016-06-18T20:23:45.017Z,82.14
2016-06-18T20:24:45.037Z,82.23
2016-06-18T20:25:45.055Z,82.23
2016-06-18T20:26:45.043Z,82.04
2016-06-18T20:27:45.718Z,82.23
2016-06-18T20:28:46.112Z,82.14
2016-06-18T20:29:45.069Z,81.85
2016-06-18T20:30:45.948Z,81.75
2016-06-18T20:32:45.782Z,82.14
2016-06-18T20:34:45.117Z,82.04
2016-06-18T20:35:45.120Z,81.95
2016-06-18T20:36:45.140Z,81.95
2016-06-18T20:37:45.143Z,81.95
2016-06-18T20:38:45.366Z,81.85
2016-06-18T20:39:45.150Z,81.85
2016-06-18T20:40:45.170Z,81.85
2016-06-18T20:41:45.204Z,81.85
2016-06-18T20:43:45.195Z,81.85
2016-06-18T20:44:45.246Z,81.95
2016-06-18T20:45:45.202Z,81.85
2016-06-18T20:46:46.080Z,81.85
2016-06-18T20:47:45.632Z,81.75
2016-06-18T20:48:46.088Z,82.04
2016-06-18T20:50:00.091Z,82.04
2016-06-18T20:50:45.908Z,81.75
2016-06-18T20:51:46.130Z,82.04
2016-06-18T20:52:45.930Z,82.32
2016-06-18T20:53:46.136Z,82.04
2016-06-18T20:55:45.925Z,81.85
2016-06-18T20:56:45.303Z,81.85
2016-06-18T20:58:45.357Z,82.23
2016-06-18T20:59:45.563Z,81.95
2016-06-18T21:01:45.367Z,81.18
2016-06-18T21:02:45.371Z,81.18
2016-06-18T21:03:45.577Z,81.37
2016-06-18T21:04:45.393Z,80.94
2016-06-18T21:05:46.007Z,81.27
2016-06-18T21:06:45.431Z,81.27
2016-06-18T21:07:45.622Z,81.08
2016-06-18T21:08:45.610Z,81.23
2016-06-18T21:09:45.832Z,81.13
2016-06-18T21:10:45.429Z,81.33
2016-06-18T21:11:46.058Z,81.33
2016-06-18T21:13:00.295Z,81.81
2016-06-18T21:13:45.456Z,81.23
2016-06-18T21:14:45.866Z,81.43
2016-06-18T21:15:45.916Z,81.81
2016-06-18T21:16:46.731Z,81.33
2016-06-18T21:17:46.579Z,82
2016-06-18T21:18:45.504Z,81.33
2016-06-18T21:19:45.508Z,81.13
2016-06-18T21:20:45.745Z,81.43
2016-06-18T21:22:45.573Z,81.62
2016-06-18T21:23:46.221Z,81.23
2016-06-18T21:24:46.430Z,81.52
2016-06-18T21:25:46.017Z,81.71
2016-06-18T21:26:46.661Z,82.15
2016-06-18T21:27:46.260Z,82.38
2016-06-18T21:28:45.890Z,81.81
2016-06-18T21:29:45.628Z,81.86
2016-06-18T21:30:46.493Z,82.24
2016-06-18T21:31:45.950Z,82.15
2016-06-18T21:32:46.515Z,81.67
2016-06-18T21:33:45.660Z,81.96
2016-06-18T21:34:46.523Z,82.06
2016-06-18T21:35:45.980Z,82.06
2016-06-18T21:36:45.984Z,82.06
2016-06-18T21:37:46.348Z,82.15
2016-06-18T21:39:00.554Z,82.15
2016-06-18T21:40:46.421Z,81.77
2016-06-18T21:41:46.597Z,82.06
2016-06-18T21:42:46.397Z,81.96
2016-06-18T21:43:46.807Z,81.96
2016-06-18T21:44:46.592Z,81.77
2016-06-18T21:45:46.407Z,81.48
2016-06-18T21:46:46.630Z,81.77
2016-06-18T21:47:46.648Z,82.15
2016-06-18T21:48:46.277Z,82.24
2016-06-18T21:49:46.859Z,81.86
2016-06-18T21:50:46.097Z,82.15
2016-06-18T21:51:45.804Z,81.86
2016-06-18T21:52:46.698Z,81.96
2016-06-18T21:53:46.483Z,81.67
2016-06-18T21:54:46.033Z,81.86
2016-06-18T21:55:45.848Z,81.86
2016-06-18T21:56:46.727Z,81.86
2016-06-18T21:57:46.449Z,81.96
2016-06-18T21:58:46.297Z,81.86
2016-06-18T21:59:46.159Z,82.11
2016-06-18T22:00:46.740Z,82.15
2016-06-18T22:01:45.885Z,82.49
2016-06-18T22:02:46.544Z,82.43
2016-06-18T22:04:00.969Z,82.06
2016-06-18T22:05:00.770Z,82.63
2016-06-18T22:06:01.165Z,82.63
2016-06-18T22:06:46.574Z,82.63
2016-06-18T22:08:46.596Z,82.59
2016-06-18T22:09:47.007Z,82.2
2016-06-18T22:10:47.025Z,82.49
2016-06-18T22:11:47.217Z,82.53
2016-06-18T22:13:46.848Z,82.01
2016-06-18T22:15:46.652Z,82.2
2016-06-18T22:16:47.078Z,82.3
2016-06-18T22:17:46.862Z,82.4
2016-06-18T22:18:46.678Z,82.49
2016-06-18T22:19:46.900Z,82.59
2016-06-18T22:20:46.920Z,82.68
2016-06-18T22:21:46.470Z,82.4
2016-06-18T22:22:46.302Z,82.11
2016-06-18T22:23:46.742Z,82.11
2016-06-18T22:25:00.917Z,81.92
2016-06-18T22:25:46.920Z,81.92
2016-06-18T22:27:00.924Z,81.82
2016-06-18T22:28:00.944Z,82.11
2016-06-18T22:28:46.759Z,81.92
2016-06-18T22:30:00.951Z,82.3
2016-06-18T22:30:46.784Z,82.11
2016-06-18T22:31:46.992Z,82.01
2016-06-18T22:33:00.965Z,81.92
2016-06-18T22:34:00.984Z,82.11
2016-06-18T22:34:46.802Z,82.4
2016-06-18T22:36:01.196Z,82.49
2016-06-18T22:37:01.013Z,82.11
2016-06-18T22:38:01.033Z,81.92
2016-06-18T22:38:47.286Z,82.11
2016-06-18T22:39:46.852Z,82.11
2016-06-18T22:40:47.059Z,82.11
2016-06-18T22:41:46.859Z,82.2
2016-06-18T22:42:47.659Z,82.11
2016-06-18T22:43:46.882Z,82.3
2016-06-18T22:44:46.885Z,82.49
2016-06-18T22:45:46.888Z,82.49
2016-06-18T22:46:46.440Z,82.59
2016-06-18T22:48:46.258Z,82.26
2016-06-18T22:50:01.121Z,82.45
2016-06-18T22:51:46.785Z,82.07
2016-06-18T22:52:47.397Z,82.07
2016-06-18T22:53:47.167Z,82.07
2016-06-18T22:54:46.592Z,81.88
2016-06-18T22:55:47.189Z,81.88
2016-06-18T22:56:46.630Z,81.88
2016-06-18T22:57:46.336Z,82.17
2016-06-18T22:58:47.387Z,82.45
2016-06-18T22:59:46.343Z,82.07
2016-06-18T23:00:47.018Z,82.35
2016-06-18T23:01:47.241Z,82.64
2016-06-18T23:02:47.244Z,83.12
2016-06-18T23:04:47.048Z,82.74
2016-06-18T23:05:46.395Z,82.54
2016-06-18T23:06:46.398Z,82.54
2016-06-18T23:07:46.418Z,82.74
2016-06-18T23:08:46.906Z,82.64
2016-06-18T23:09:47.097Z,82.74
2016-06-18T23:10:47.084Z,82.74
2016-06-18T23:11:46.447Z,82.74
2016-06-18T23:12:46.450Z,82.93
2016-06-18T23:13:47.313Z,82.93
2016-06-18T23:14:47.114Z,82.93
2016-06-18T23:15:47.524Z,83.12
2016-06-18T23:16:47.324Z,83.03
2016-06-18T23:18:01.921Z,83.03
2016-06-18T23:18:47.331Z,83.03
2016-06-18T23:20:47.149Z,82.83
2016-06-18T23:22:01.357Z,82.26
2016-06-18T23:23:01.548Z,82.45
2016-06-18T23:23:47.176Z,82.35
2016-06-18T23:24:46.726Z,82.64
2016-06-18T23:25:47.433Z,82.45
2016-06-18T23:26:47.046Z,82.26
2016-06-18T23:27:46.752Z,82.54
2016-06-18T23:28:46.552Z,82.35
2016-06-18T23:29:46.775Z,82.45
2016-06-18T23:30:46.576Z,82.26
2016-06-18T23:31:46.579Z,82.41
2016-06-18T23:32:46.582Z,82.54
2016-06-18T23:33:46.789Z,82.35
2016-06-18T23:34:46.605Z,82.45
2016-06-18T23:35:47.265Z,82.74
2016-06-18T23:36:46.612Z,82.41
2016-06-18T23:37:46.616Z,82.7
2016-06-18T23:38:46.636Z,82.51
2016-06-18T23:39:46.640Z,82.22
2016-06-18T23:40:46.646Z,82.22
2016-06-18T23:41:46.650Z,82.22
2016-06-18T23:42:46.654Z,82.31
2016-06-18T23:43:46.658Z,82.51
2016-06-18T23:44:46.677Z,82.41
2016-06-18T23:45:46.682Z,82.41
2016-06-18T23:46:46.888Z,82.41
2016-06-18T23:47:46.704Z,82.41
2016-06-18T23:48:46.707Z,82.31
2016-06-18T23:49:46.711Z,82.41
2016-06-18T23:50:46.714Z,82.31
2016-06-18T23:51:46.734Z,82.41
2016-06-18T23:52:46.737Z,82.51
2016-06-18T23:53:46.741Z,82.41
2016-06-18T23:54:46.744Z,82.79
2016-06-18T23:56:47.376Z,82.7
2016-06-18T23:58:47.633Z,83.17
2016-06-18T23:59:47.839Z,82.98
